Time;durP1;ratioP1;P1;durP2;ratioP2;P2;SDS_P1;SDS_P2;PMS_P1;PMS_P2;Temp;Humidity;BMP_temperature;BMP_pressure;BME280_temperature;BME280_humidity;BME280_pressure;Samples;Min_cycle;Max_cycle;Signal;HPM_P1;HPM_P2
2021/12/17 00:05:04;;;;;;;29.70;15.00;;;9.80;99.90;;;;;;5035614;28;20231;-73
2021/12/17 00:07:35;;;;;;;32.72;18.15;;;9.80;99.90;;;;;;5040970;28;20291;-72
2021/12/17 00:10:05;;;;;;;32.30;18.42;;;9.80;99.90;;;;;;5036127;28;20253;-73
2021/12/17 00:12:33;;;;;;;27.92;16.50;;;9.80;99.90;;;;;;5043794;28;20200;-72
2021/12/17 00:15:01;;;;;;;25.67;15.80;;;9.80;99.90;;;;;;5034343;28;20272;-73
2021/12/17 00:17:32;;;;;;;31.40;17.58;;;9.80;99.90;;;;;;5033660;28;20204;-73
2021/12/17 00:20:33;;;;;;;33.97;18.70;;;9.80;99.90;;;;;;5032948;28;20535;-73
2021/12/17 00:51:04;;;;;;;35.45;17.45;;;10.00;99.90;;;;;;5032120;28;20227;-73
2021/12/17 00:53:31;;;;;;;29.02;16.60;;;9.90;99.90;;;;;;5031489;28;20262;-73
2021/12/17 00:55:58;;;;;;;29.83;17.10;;;10.00;99.90;;;;;;5033527;28;20206;-73
2021/12/17 00:58:25;;;;;;;30.98;16.75;;;10.00;99.90;;;;;;5032965;28;20196;-72
2021/12/17 01:00:54;;;;;;;25.08;15.90;;;10.00;99.90;;;;;;5026558;28;20224;-73
2021/12/17 01:03:21;;;;;;;31.70;17.30;;;10.00;99.90;;;;;;5032971;28;20201;-73
2021/12/17 01:05:47;;;;;;;30.40;17.80;;;10.00;99.90;;;;;;5032332;28;20584;-73
2021/12/17 01:08:15;;;;;;;28.17;16.05;;;10.00;99.90;;;;;;5030846;28;20208;-73
2021/12/17 01:10:46;;;;;;;38.03;18.23;;;10.00;99.90;;;;;;5015908;28;20246;-72
2021/12/17 01:13:14;;;;;;;31.70;17.80;;;9.90;99.90;;;;;;5032797;28;20279;-72
2021/12/17 01:15:43;;;;;;;28.38;15.40;;;9.90;99.90;;;;;;5029073;28;20307;-72
2021/12/17 01:18:17;;;;;;;36.65;18.65;;;9.80;99.90;;;;;;5032304;28;20287;-73
2021/12/17 01:21:06;;;;;;;32.10;16.42;;;9.80;99.90;;;;;;5023860;28;20219;-72
2021/12/17 01:24:04;;;;;;;28.42;16.17;;;9.80;99.90;;;;;;5032576;28;20227;-72
2021/12/17 01:42:53;;;;;;;29.83;15.63;;;9.70;99.90;;;;;;5023380;28;20228;-72
2021/12/17 01:45:26;;;;;;;27.20;15.43;;;9.70;99.90;;;;;;5032046;28;20228;-72
2021/12/17 01:47:53;;;;;;;24.65;14.00;;;9.80;99.90;;;;;;5033224;28;20207;-71
2021/12/17 01:56:04;;;;;;;24.90;12.52;;;9.90;99.90;;;;;;5025882;28;20200;-71
2021/12/17 02:01:16;;;;;;;21.52;12.02;;;9.80;99.90;;;;;;5031495;28;20601;-71
2021/12/17 02:03:43;;;;;;;21.40;13.32;;;9.80;99.90;;;;;;5028490;28;20220;-71
2021/12/17 02:06:12;;;;;;;21.65;12.73;;;9.80;99.90;;;;;;5031940;28;20293;-71
2021/12/17 02:08:39;;;;;;;20.25;12.32;;;9.80;99.90;;;;;;5032147;28;20291;-71
2021/12/17 02:11:49;;;;;;;25.63;12.43;;;9.70;99.90;;;;;;5031419;28;20243;-71
2021/12/17 02:19:58;;;;;;;23.63;14.57;;;9.70;99.90;;;;;;4990926;28;20206;-71
2021/12/17 02:33:25;;;;;;;23.90;13.43;;;9.60;99.90;;;;;;5031530;28;20200;-71
2021/12/17 02:35:52;;;;;;;21.50;12.50;;;9.60;99.90;;;;;;5031786;28;20295;-71
2021/12/17 02:38:20;;;;;;;18.60;11.57;;;9.60;99.90;;;;;;5031853;28;20208;-72
2021/12/17 02:46:16;;;;;;;13.15;8.40;;;9.70;99.90;;;;;;5031518;28;20667;-72
2021/12/17 02:48:43;;;;;;;19.13;9.13;;;9.60;99.90;;;;;;5032188;28;20611;-72
2021/12/17 02:51:10;;;;;;;16.95;8.63;;;9.60;99.90;;;;;;5030351;28;20227;-72
2021/12/17 02:53:39;;;;;;;13.15;7.90;;;9.60;99.90;;;;;;5031409;28;20213;-72
2021/12/17 02:56:08;;;;;;;8.65;5.82;;;9.70;99.90;;;;;;5031703;28;20214;-71
2021/12/17 02:58:38;;;;;;;9.88;6.00;;;9.70;99.90;;;;;;5035009;28;20200;-71
2021/12/17 03:01:07;;;;;;;12.05;6.40;;;9.70;99.90;;;;;;5035254;28;20216;-72
2021/12/17 03:03:36;;;;;;;9.63;5.85;;;9.60;99.90;;;;;;5034819;28;20743;-71
2021/12/17 03:06:03;;;;;;;11.90;5.60;;;9.50;99.90;;;;;;5035475;28;20207;-70
2021/12/17 03:08:31;;;;;;;7.80;4.82;;;9.50;99.90;;;;;;5035331;28;20234;-71
2021/12/17 03:11:00;;;;;;;9.02;5.47;;;9.40;99.90;;;;;;5033938;28;20231;-71
2021/12/17 03:13:33;;;;;;;9.90;5.97;;;9.40;99.90;;;;;;5035375;28;20250;-71
2021/12/17 03:16:06;;;;;;;6.35;4.00;;;9.40;99.90;;;;;;5034987;28;20642;-71
2021/12/17 03:18:57;;;;;;;6.90;5.05;;;9.40;99.90;;;;;;5033636;28;20638;-71
2021/12/17 03:24:08;;;;;;;5.53;4.30;;;9.50;99.90;;;;;;5033570;28;20318;-71
2021/12/17 03:26:37;;;;;;;5.82;3.60;;;9.40;99.90;;;;;;5034541;28;20291;-71
2021/12/17 03:29:07;;;;;;;7.50;4.35;;;9.30;99.90;;;;;;5034934;28;20200;-72
2021/12/17 03:31:35;;;;;;;7.68;5.85;;;9.30;99.90;;;;;;5033894;28;20256;-71
2021/12/17 03:34:15;;;;;;;12.85;6.57;;;9.30;99.90;;;;;;5034730;28;20197;-72
2021/12/17 03:36:42;;;;;;;12.60;7.13;;;9.30;99.90;;;;;;5037015;28;20207;-72
2021/12/17 03:39:09;;;;;;;13.95;6.20;;;9.20;99.90;;;;;;5037481;28;20273;-71
2021/12/17 03:41:39;;;;;;;10.43;6.97;;;9.20;99.90;;;;;;5030874;28;20314;-72
2021/12/17 03:44:08;;;;;;;8.63;5.72;;;9.10;99.90;;;;;;5035126;28;20220;-70
2021/12/17 03:46:35;;;;;;;11.00;4.75;;;9.10;99.90;;;;;;5034213;28;20295;-72
2021/12/17 03:49:03;;;;;;;6.25;4.35;;;9.10;99.90;;;;;;5034409;28;20231;-71
2021/12/17 03:51:30;;;;;;;7.03;4.53;;;9.10;99.90;;;;;;5032117;28;20225;-71
2021/12/17 03:53:59;;;;;;;9.95;4.50;;;9.20;99.90;;;;;;5033929;28;20296;-71
2021/12/17 03:56:27;;;;;;;5.25;3.45;;;9.20;99.90;;;;;;5034532;28;20204;-71
2021/12/17 03:58:57;;;;;;;5.90;4.07;;;9.30;99.90;;;;;;5032409;28;20204;-71
2021/12/17 04:01:25;;;;;;;7.88;4.80;;;9.30;99.90;;;;;;5033544;28;20231;-71
2021/12/17 04:03:52;;;;;;;5.40;4.22;;;9.40;99.90;;;;;;5034036;28;20367;-72
2021/12/17 04:06:19;;;;;;;6.20;3.70;;;9.40;99.90;;;;;;5026334;28;20207;-70
2021/12/17 04:08:46;;;;;;;7.30;3.78;;;9.40;99.90;;;;;;5033810;28;20299;-72
2021/12/17 04:11:18;;;;;;;6.40;4.22;;;9.40;99.90;;;;;;5033039;28;20743;-71
2021/12/17 04:13:52;;;;;;;3.33;2.55;;;9.40;99.90;;;;;;5029651;28;20200;-72
2021/12/17 04:16:24;;;;;;;4.90;2.67;;;9.40;99.90;;;;;;5034216;28;20236;-71
2021/12/17 04:18:51;;;;;;;5.20;3.20;;;9.40;99.90;;;;;;5033625;28;20208;-73
2021/12/17 04:21:19;;;;;;;5.63;3.60;;;9.40;99.90;;;;;;5032668;28;20251;-70
2021/12/17 04:23:48;;;;;;;4.93;3.25;;;9.30;99.90;;;;;;5033032;28;20659;-71
2021/12/17 04:26:17;;;;;;;5.93;4.20;;;9.30;99.90;;;;;;5033682;28;20721;-71
2021/12/17 04:28:47;;;;;;;5.93;4.18;;;9.30;99.90;;;;;;5032571;28;20287;-72
2021/12/17 04:31:15;;;;;;;10.27;4.72;;;9.30;99.90;;;;;;5032756;28;20713;-71
2021/12/17 04:33:44;;;;;;;6.15;4.65;;;9.20;99.90;;;;;;5025308;28;20682;-70
2021/12/17 04:36:14;;;;;;;8.57;5.10;;;9.20;99.90;;;;;;5032971;28;20629;-70
2021/12/17 04:38:41;;;;;;;8.90;4.32;;;9.20;99.90;;;;;;5033448;28;20611;-70
2021/12/17 04:41:38;;;;;;;5.25;3.55;;;9.10;99.90;;;;;;5032419;28;20224;-71
2021/12/17 04:44:11;;;;;;;9.85;4.53;;;9.10;99.90;;;;;;5028255;28;20202;-71
2021/12/17 04:46:43;;;;;;;9.15;4.35;;;9.10;99.90;;;;;;5029212;28;20200;-71
2021/12/17 04:57:36;;;;;;;7.28;4.88;;;9.10;99.90;;;;;;5033011;28;20247;-72
2021/12/17 05:00:07;;;;;;;9.15;4.88;;;9.10;99.90;;;;;;5027169;28;20224;-72
2021/12/17 05:02:39;;;;;;;9.07;5.43;;;9.10;99.90;;;;;;5032360;28;20209;-72
2021/12/17 05:05:10;;;;;;;10.07;5.30;;;9.10;99.90;;;;;;5032683;28;20232;-72
2021/12/17 05:07:41;;;;;;;12.20;4.78;;;9.10;99.90;;;;;;5032041;28;20208;-72
2021/12/17 05:10:17;;;;;;;8.32;5.10;;;9.10;99.90;;;;;;5031555;28;20255;-72
2021/12/17 05:18:20;;;;;;;5.22;3.33;;;9.10;99.90;;;;;;5032802;28;20243;-72
2021/12/17 05:20:53;;;;;;;5.13;3.20;;;9.10;99.90;;;;;;5022695;28;20228;-71
2021/12/17 05:23:25;;;;;;;5.60;3.30;;;9.00;99.90;;;;;;5033967;28;20196;-71
2021/12/17 05:25:52;;;;;;;5.40;3.00;;;9.00;99.90;;;;;;5035184;28;20204;-72
2021/12/17 05:28:20;;;;;;;7.20;3.60;;;9.00;99.90;;;;;;5035160;28;20243;-71
2021/12/17 05:30:48;;;;;;;7.43;3.75;;;9.10;99.90;;;;;;5033755;28;20224;-72
2021/12/17 05:33:15;;;;;;;4.50;3.20;;;9.10;99.90;;;;;;5029544;28;20197;-72
2021/12/17 05:35:42;;;;;;;5.55;3.67;;;9.10;99.90;;;;;;5024541;28;20231;-72
2021/12/17 05:38:13;;;;;;;10.40;4.18;;;9.20;99.90;;;;;;5032605;28;20211;-72
2021/12/17 05:40:41;;;;;;;7.82;4.15;;;9.10;99.90;;;;;;5031490;28;20220;-72
2021/12/17 05:43:08;;;;;;;5.65;4.18;;;9.20;99.90;;;;;;5031947;28;20615;-72
2021/12/17 05:45:47;;;;;;;9.98;4.57;;;9.20;99.90;;;;;;5032387;28;20216;-71
2021/12/17 05:48:14;;;;;;;9.73;3.78;;;9.20;99.90;;;;;;5032181;28;20200;-72
2021/12/17 05:50:44;;;;;;;7.15;3.58;;;9.20;99.90;;;;;;5023521;28;20310;-72
2021/12/17 05:53:13;;;;;;;10.35;4.55;;;9.20;99.90;;;;;;5032042;28;20219;-72
2021/12/17 05:55:40;;;;;;;8.30;4.35;;;9.20;99.90;;;;;;5032450;28;20694;-73
2021/12/17 05:58:08;;;;;;;8.27;4.78;;;9.10;99.90;;;;;;5032347;28;20243;-73
2021/12/17 06:00:38;;;;;;;10.68;5.00;;;9.30;99.90;;;;;;5031627;28;20311;-72
2021/12/17 06:03:05;;;;;;;8.63;4.47;;;9.20;99.90;;;;;;5032494;28;20242;-71
2021/12/17 06:05:32;;;;;;;7.45;4.57;;;9.20;99.90;;;;;;5031876;28;20220;-72
2021/12/17 06:08:00;;;;;;;9.40;5.57;;;9.10;99.90;;;;;;5032591;28;20208;-72
2021/12/17 06:10:28;;;;;;;8.82;5.15;;;9.20;99.90;;;;;;5032140;28;20236;-72
2021/12/17 06:12:55;;;;;;;14.20;6.75;;;9.20;99.90;;;;;;5033036;28;20218;-71
2021/12/17 06:15:23;;;;;;;9.32;5.03;;;9.20;99.90;;;;;;5032529;28;20655;-72
2021/12/17 06:17:52;;;;;;;7.93;4.30;;;9.20;99.90;;;;;;5032935;28;20290;-72
2021/12/17 06:20:20;;;;;;;8.95;5.35;;;9.20;99.90;;;;;;5031637;28;20223;-71
2021/12/17 06:22:47;;;;;;;9.18;5.25;;;9.30;99.90;;;;;;5032174;28;20208;-72
2021/12/17 06:25:14;;;;;;;10.43;5.68;;;9.20;99.90;;;;;;5032035;28;20212;-72
2021/12/17 06:27:43;;;;;;;12.90;7.30;;;9.30;99.90;;;;;;5032613;28;20188;-73
2021/12/17 06:30:13;;;;;;;14.13;7.38;;;9.30;99.90;;;;;;5035694;28;20221;-73
2021/12/17 06:32:40;;;;;;;10.32;6.57;;;9.30;99.90;;;;;;5035559;28;20232;-72
2021/12/17 06:35:08;;;;;;;12.00;7.18;;;9.20;99.90;;;;;;5035373;28;20204;-72
2021/12/17 06:37:36;;;;;;;13.68;8.73;;;9.30;99.90;;;;;;5035854;28;20232;-72
2021/12/17 06:40:10;;;;;;;17.17;9.40;;;9.30;99.90;;;;;;5034848;28;20224;-73
2021/12/17 06:42:37;;;;;;;12.73;8.85;;;9.30;99.90;;;;;;5035237;28;20242;-70
2021/12/17 06:45:15;;;;;;;18.45;12.23;;;9.30;99.90;;;;;;5035061;28;20228;-73
2021/12/17 06:47:45;;;;;;;23.35;12.60;;;9.30;99.90;;;;;;5032215;28;20219;-72
2021/12/17 06:56:24;;;;;;;23.15;14.75;;;9.30;99.90;;;;;;5032119;28;20196;-73
2021/12/17 06:59:00;;;;;;;22.17;13.57;;;9.30;99.90;;;;;;5035295;28;20207;-74
2021/12/17 07:10:18;;;;;;;15.90;10.75;;;9.40;99.90;;;;;;5026166;28;20306;-74
2021/12/17 07:21:20;;;;;;;16.08;10.02;;;9.50;99.90;;;;;;5011545;28;20224;-72
2021/12/17 07:24:14;;;;;;;18.35;10.10;;;9.50;99.90;;;;;;5042322;28;20212;-71
2021/12/17 07:35:12;;;;;;;16.67;10.80;;;9.50;99.90;;;;;;5026761;28;20192;-72
2021/12/17 07:40:26;;;;;;;16.17;9.48;;;9.40;99.90;;;;;;5000453;28;20252;-72
2021/12/17 07:42:54;;;;;;;17.15;9.88;;;9.50;99.90;;;;;;5021470;28;20197;-74
2021/12/17 07:45:21;;;;;;;16.70;8.55;;;9.60;99.90;;;;;;5018292;28;20228;-72
2021/12/17 07:47:48;;;;;;;18.58;9.82;;;9.60;99.90;;;;;;5022691;28;20616;-71
2021/12/17 07:50:17;;;;;;;17.15;9.93;;;9.60;99.90;;;;;;5021354;28;20713;-72
2021/12/17 07:52:44;;;;;;;14.60;8.93;;;9.60;99.90;;;;;;5028428;28;20244;-73
2021/12/17 07:55:11;;;;;;;14.85;11.32;;;9.60;99.90;;;;;;5034752;28;20209;-73
2021/12/17 07:57:38;;;;;;;15.75;9.85;;;9.80;99.90;;;;;;5034171;28;20227;-71
2021/12/17 08:00:06;;;;;;;20.90;11.57;;;10.00;99.90;;;;;;5033835;28;20620;-71
2021/12/17 08:02:33;;;;;;;18.50;9.30;;;10.10;99.90;;;;;;5033492;28;20690;-73
2021/12/17 08:05:00;;;;;;;12.73;8.80;;;10.40;99.90;;;;;;5032054;28;20208;-72
2021/12/17 08:07:30;;;;;;;18.02;8.82;;;10.50;99.90;;;;;;5033956;28;20204;-71
2021/12/17 08:09:57;;;;;;;14.70;8.00;;;10.60;99.90;;;;;;5032741;28;20285;-73
2021/12/17 08:12:24;;;;;;;14.68;9.75;;;10.80;99.90;;;;;;5033321;28;20319;-72
2021/12/17 08:14:51;;;;;;;15.13;10.30;;;10.70;99.90;;;;;;5033803;28;20230;-72
2021/12/17 08:17:38;;;;;;;12.02;7.07;;;10.80;99.90;;;;;;5033242;28;20229;-72
2021/12/17 08:23:34;;;;;;;13.32;7.45;;;10.80;99.90;;;;;;5022848;28;20224;-73
2021/12/17 08:26:03;;;;;;;13.88;9.00;;;11.00;99.90;;;;;;5023105;28;20228;-73
2021/12/17 08:28:50;;;;;;;14.38;8.80;;;11.10;99.90;;;;;;5020629;28;20237;-73
2021/12/17 08:31:17;;;;;;;28.95;13.65;;;11.10;99.90;;;;;;5019807;28;20233;-71
2021/12/17 08:33:45;;;;;;;18.90;10.60;;;11.20;99.90;;;;;;5020544;28;20247;-72
2021/12/17 08:36:12;;;;;;;14.55;7.97;;;11.10;99.90;;;;;;5024019;28;20228;-71
2021/12/17 08:38:41;;;;;;;17.33;11.23;;;11.00;99.90;;;;;;5020305;28;20200;-73
2021/12/17 08:41:09;;;;;;;17.77;11.80;;;10.90;99.90;;;;;;5027324;28;20319;-73
2021/12/17 08:43:36;;;;;;;16.80;12.45;;;11.00;99.90;;;;;;5033477;28;20244;-72
2021/12/17 08:46:03;;;;;;;14.43;9.85;;;11.20;99.90;;;;;;5033179;28;20219;-72
2021/12/17 08:48:30;;;;;;;13.70;8.65;;;11.30;99.90;;;;;;5032925;28;20246;-73
2021/12/17 08:50:58;;;;;;;19.05;12.23;;;11.20;99.90;;;;;;5026884;28;20228;-74
2021/12/17 08:53:25;;;;;;;14.55;9.95;;;11.20;99.90;;;;;;5032994;28;20300;-72
2021/12/17 08:55:54;;;;;;;12.73;9.40;;;11.30;99.90;;;;;;5032069;28;20620;-73
2021/12/17 08:58:22;;;;;;;22.15;13.55;;;11.30;99.90;;;;;;5027779;28;20588;-72
2021/12/17 09:00:50;;;;;;;17.48;10.25;;;11.40;99.90;;;;;;5032381;28;20222;-73
2021/12/17 09:03:17;;;;;;;16.77;10.50;;;11.50;99.90;;;;;;5033463;28;20197;-72
2021/12/17 09:05:46;;;;;;;17.27;10.07;;;11.60;99.90;;;;;;5025456;28;20316;-73
2021/12/17 09:08:14;;;;;;;12.95;8.07;;;11.40;99.90;;;;;;5023600;28;20233;-72
2021/12/17 09:10:43;;;;;;;14.60;8.73;;;11.30;99.90;;;;;;5027060;28;20236;-72
2021/12/17 09:13:12;;;;;;;13.35;9.02;;;11.40;99.90;;;;;;5037627;28;20268;-71
2021/12/17 09:15:39;;;;;;;12.73;9.20;;;11.40;99.90;;;;;;5039896;28;20224;-72
2021/12/17 09:18:06;;;;;;;12.05;8.02;;;11.20;99.90;;;;;;5036569;28;20198;-72
2021/12/17 09:20:34;;;;;;;13.73;8.02;;;11.20;99.90;;;;;;5032190;28;20655;-72
2021/12/17 09:23:01;;;;;;;11.52;8.20;;;11.20;99.90;;;;;;5032781;28;20196;-73
2021/12/17 09:25:29;;;;;;;10.77;6.85;;;11.00;99.90;;;;;;5032423;28;20262;-73
2021/12/17 09:27:56;;;;;;;10.90;7.25;;;10.90;99.90;;;;;;5032452;28;20746;-72
2021/12/17 09:30:24;;;;;;;12.18;8.50;;;10.80;99.90;;;;;;5031545;28;20307;-72
2021/12/17 09:32:51;;;;;;;10.82;8.48;;;10.80;99.90;;;;;;5032568;28;20209;-72
2021/12/17 09:35:19;;;;;;;14.05;9.05;;;10.60;99.90;;;;;;5032349;28;20226;-72
2021/12/17 09:37:46;;;;;;;13.40;8.93;;;10.50;99.90;;;;;;5032521;28;20200;-72
2021/12/17 09:40:14;;;;;;;9.68;6.93;;;10.30;99.90;;;;;;5031385;28;20271;-73
2021/12/17 09:42:43;;;;;;;15.73;9.02;;;10.20;99.90;;;;;;5032118;28;20282;-72
2021/12/17 09:45:10;;;;;;;11.27;8.88;;;10.20;99.90;;;;;;5031967;28;20204;-71
2021/12/17 09:47:39;;;;;;;12.00;8.18;;;10.20;99.90;;;;;;5026963;28;20216;-72
2021/12/17 09:50:09;;;;;;;9.55;7.43;;;10.20;99.90;;;;;;5026770;28;20614;-72
2021/12/17 09:52:36;;;;;;;11.75;9.07;;;10.20;99.90;;;;;;5031983;28;20228;-72
2021/12/17 09:55:05;;;;;;;12.05;8.48;;;10.20;99.90;;;;;;5032303;28;20607;-73
2021/12/17 09:57:36;;;;;;;9.95;7.70;;;10.20;99.90;;;;;;5032013;28;20204;-73
2021/12/17 10:00:04;;;;;;;12.27;9.15;;;10.20;99.90;;;;;;5031682;28;20228;-72
2021/12/17 10:02:31;;;;;;;12.43;8.68;;;10.10;99.90;;;;;;5032406;28;20206;-72
2021/12/17 10:05:00;;;;;;;11.73;8.85;;;10.10;99.90;;;;;;5027615;28;20236;-70
2021/12/17 10:07:29;;;;;;;12.05;9.82;;;10.10;99.90;;;;;;5024687;28;20323;-73
2021/12/17 10:10:00;;;;;;;15.20;8.80;;;10.20;99.90;;;;;;5016493;28;20288;-72
2021/12/17 10:12:28;;;;;;;11.18;7.85;;;10.10;99.90;;;;;;5031879;28;20201;-72
2021/12/17 10:15:07;;;;;;;12.52;8.77;;;10.10;99.90;;;;;;5025555;28;20192;-73
2021/12/17 10:17:34;;;;;;;10.68;8.98;;;10.10;99.90;;;;;;5025023;28;20205;-73
2021/12/17 10:20:04;;;;;;;13.80;10.48;;;10.20;99.90;;;;;;5022194;28;20219;-72
2021/12/17 10:22:32;;;;;;;13.88;10.88;;;10.20;99.90;;;;;;5033584;28;20682;-73
2021/12/17 10:25:06;;;;;;;15.25;10.57;;;10.10;99.90;;;;;;5028771;28;20203;-72
2021/12/17 10:27:35;;;;;;;10.40;8.30;;;10.00;99.90;;;;;;5029293;28;20688;-71
2021/12/17 10:30:12;;;;;;;13.77;7.50;;;10.00;99.90;;;;;;5033987;28;20279;-72
2021/12/17 10:32:42;;;;;;;6.80;6.10;;;10.00;99.90;;;;;;5026270;28;20199;-72
2021/12/17 10:35:13;;;;;;;7.00;5.78;;;10.00;99.90;;;;;;5025663;28;20267;-73
2021/12/17 10:37:42;;;;;;;9.27;7.03;;;10.10;99.90;;;;;;5024060;28;20201;-73
2021/12/17 10:40:17;;;;;;;10.02;8.10;;;10.00;99.90;;;;;;5023290;28;20220;-72
2021/12/17 10:42:51;;;;;;;6.18;5.57;;;10.10;99.90;;;;;;5029293;28;20300;-72
2021/12/17 10:45:25;;;;;;;8.65;5.43;;;10.20;99.90;;;;;;5021633;28;20200;-73
2021/12/17 10:48:22;;;;;;;8.00;6.13;;;10.20;99.90;;;;;;5024311;28;20217;-72
2021/12/17 10:50:53;;;;;;;5.80;4.85;;;10.20;99.90;;;;;;5022586;28;20270;-75
2021/12/17 10:53:25;;;;;;;9.05;6.13;;;10.20;99.90;;;;;;5027502;28;20239;-72
2021/12/17 10:55:52;;;;;;;9.05;7.30;;;10.20;99.90;;;;;;5019538;28;20237;-73
2021/12/17 10:58:20;;;;;;;7.43;5.40;;;10.20;99.90;;;;;;5030675;28;20205;-71
2021/12/17 11:00:50;;;;;;;6.03;5.25;;;10.20;99.90;;;;;;5040837;28;20703;-74
2021/12/17 11:03:18;;;;;;;6.50;4.25;;;10.10;99.90;;;;;;5037457;28;20283;-71
2021/12/17 11:05:45;;;;;;;6.32;3.97;;;10.10;99.90;;;;;;5038544;28;20239;-73
2021/12/17 11:08:33;;;;;;;4.82;4.32;;;10.10;99.90;;;;;;5035857;28;20247;-71
2021/12/17 11:11:08;;;;;;;5.13;3.45;;;10.20;99.90;;;;;;5027482;28;20225;-73
2021/12/17 11:13:36;;;;;;;3.70;3.40;;;10.10;99.90;;;;;;5026426;28;20204;-72
2021/12/17 11:16:04;;;;;;;5.13;3.50;;;10.10;99.90;;;;;;5022185;28;20587;-71
2021/12/17 11:18:31;;;;;;;6.80;3.70;;;10.10;99.90;;;;;;5020495;28;20298;-72
2021/12/17 11:20:58;;;;;;;5.40;4.50;;;10.10;99.90;;;;;;5021120;28;20624;-73
2021/12/17 11:23:28;;;;;;;6.60;3.90;;;10.10;99.90;;;;;;5021212;28;20285;-72
2021/12/17 11:25:57;;;;;;;7.35;4.63;;;10.10;99.90;;;;;;5024075;28;20205;-71
2021/12/17 11:28:24;;;;;;;4.07;3.25;;;10.10;99.90;;;;;;5024511;28;20378;-74
2021/12/17 11:30:52;;;;;;;5.72;4.80;;;10.10;99.90;;;;;;5033696;28;20230;-72
2021/12/17 11:33:19;;;;;;;8.00;5.88;;;10.10;99.90;;;;;;5034214;28;20607;-73
2021/12/17 11:35:48;;;;;;;16.15;7.25;;;10.20;99.90;;;;;;5034322;28;20684;-71
2021/12/17 11:38:21;;;;;;;7.93;5.75;;;10.20;99.90;;;;;;5024574;28;20204;-71
2021/12/17 11:40:53;;;;;;;5.07;4.45;;;10.20;99.90;;;;;;5033515;28;20288;-72
2021/12/17 11:43:38;;;;;;;8.73;6.00;;;10.20;99.90;;;;;;5031793;28;20239;-72
2021/12/17 11:46:07;;;;;;;8.25;5.95;;;10.20;99.90;;;;;;5034747;28;20287;-74
2021/12/17 11:48:35;;;;;;;9.43;5.35;;;10.20;99.90;;;;;;5027716;28;20196;-75
2021/12/17 11:51:11;;;;;;;7.32;5.55;;;10.20;99.90;;;;;;5027983;28;20231;-72
2021/12/17 11:53:54;;;;;;;8.73;6.68;;;10.20;99.90;;;;;;5052611;28;20217;-73
2021/12/17 11:56:39;;;;;;;5.70;5.00;;;10.20;99.90;;;;;;5025664;28;20268;-72
2021/12/17 11:59:07;;;;;;;7.75;5.85;;;10.30;99.90;;;;;;5024907;28;20200;-71
2021/12/17 12:01:59;;;;;;;8.93;6.07;;;10.40;99.90;;;;;;5025308;28;20226;-72
2021/12/17 12:04:50;;;;;;;6.30;5.03;;;10.40;99.90;;;;;;5022384;28;20224;-73
2021/12/17 12:07:20;;;;;;;11.70;5.82;;;10.50;99.90;;;;;;5028393;28;20563;-72
2021/12/17 12:10:08;;;;;;;8.20;5.80;;;10.40;99.90;;;;;;5021077;28;20205;-73
2021/12/17 12:13:00;;;;;;;8.63;5.43;;;10.40;99.90;;;;;;5032796;28;20197;-73
2021/12/17 12:15:33;;;;;;;6.05;4.65;;;10.50;99.90;;;;;;5021948;28;20291;-72
2021/12/17 12:18:23;;;;;;;4.85;3.63;;;10.50;99.90;;;;;;5020867;28;20200;-71
2021/12/17 12:20:58;;;;;;;7.05;4.57;;;10.50;99.90;;;;;;5025420;28;20308;-71
2021/12/17 12:23:41;;;;;;;5.78;4.10;;;10.50;99.90;;;;;;5031774;28;20307;-72
2021/12/17 12:26:14;;;;;;;10.18;4.20;;;10.50;99.90;;;;;;5033719;28;20287;-72
2021/12/17 12:28:49;;;;;;;8.82;5.28;;;10.50;99.90;;;;;;5032544;28;20239;-73
2021/12/17 12:32:03;;;;;;;7.50;5.10;;;10.60;99.90;;;;;;5032608;28;20259;-73
2021/12/17 12:34:35;;;;;;;7.90;4.72;;;10.60;99.90;;;;;;5033478;28;20210;-73
2021/12/17 12:37:09;;;;;;;6.35;3.95;;;10.60;99.90;;;;;;5032366;28;20193;-71
2021/12/17 12:39:38;;;;;;;9.77;5.25;;;10.60;99.90;;;;;;5024220;28;20254;-73
2021/12/17 12:42:12;;;;;;;6.35;4.22;;;10.60;99.90;;;;;;5034039;28;20624;-72
2021/12/17 12:45:09;;;;;;;7.63;5.13;;;10.70;99.90;;;;;;5020879;28;20208;-73
2021/12/17 12:47:47;;;;;;;11.90;5.57;;;10.70;99.90;;;;;;5033511;28;20695;-71
2021/12/17 12:50:18;;;;;;;8.23;5.13;;;10.60;99.90;;;;;;5028621;28;20288;-72
2021/12/17 12:52:47;;;;;;;9.40;5.40;;;10.60;99.90;;;;;;5026051;28;20295;-72
2021/12/17 12:55:18;;;;;;;8.77;5.78;;;10.60;99.90;;;;;;5032055;28;20283;-74
2021/12/17 12:57:47;;;;;;;8.18;5.63;;;10.60;99.90;;;;;;5032529;28;20197;-72
2021/12/17 13:00:19;;;;;;;6.40;5.10;;;10.60;99.90;;;;;;5031973;28;20303;-75
2021/12/17 13:02:51;;;;;;;10.98;5.57;;;10.50;99.90;;;;;;5032755;28;20328;-74
2021/12/17 13:05:19;;;;;;;16.48;7.25;;;10.60;99.90;;;;;;5030606;28;20247;-75
2021/12/17 13:07:51;;;;;;;11.75;5.95;;;10.60;99.90;;;;;;5031338;28;20311;-74
2021/12/17 13:10:20;;;;;;;13.00;7.00;;;10.60;99.90;;;;;;5029060;28;20613;-72
2021/12/17 13:12:54;;;;;;;15.10;6.30;;;10.50;99.90;;;;;;5032957;28;20203;-73
2021/12/17 13:15:39;;;;;;;6.25;5.60;;;10.50;99.90;;;;;;5032813;28;20301;-72
2021/12/17 13:21:17;;;;;;;11.48;6.78;;;10.40;99.90;;;;;;5027434;28;20719;-73
2021/12/17 13:23:52;;;;;;;7.45;6.28;;;10.40;99.90;;;;;;5030677;28;20300;-72
2021/12/17 13:26:21;;;;;;;6.45;5.85;;;10.40;99.90;;;;;;5031311;28;20291;-72
2021/12/17 13:28:51;;;;;;;15.57;8.38;;;10.50;99.90;;;;;;5030636;28;20227;-72
2021/12/17 13:31:32;;;;;;;10.95;6.65;;;10.50;99.90;;;;;;5032076;28;20230;-73
2021/12/17 13:33:59;;;;;;;8.43;6.03;;;10.50;99.90;;;;;;5032006;28;20249;-72
2021/12/17 13:36:28;;;;;;;9.25;5.47;;;10.50;99.90;;;;;;5030282;28;20316;-74
2021/12/17 13:38:58;;;;;;;6.35;4.57;;;10.50;99.90;;;;;;5022329;28;20205;-72
2021/12/17 13:41:37;;;;;;;10.25;5.85;;;10.50;99.90;;;;;;5028636;28;20362;-74
2021/12/17 13:44:04;;;;;;;8.30;5.88;;;10.50;99.90;;;;;;5032501;28;20200;-73
2021/12/17 13:46:34;;;;;;;6.65;5.60;;;10.40;99.90;;;;;;5032448;28;20197;-74
2021/12/17 13:49:02;;;;;;;12.07;8.05;;;10.50;99.90;;;;;;5032131;28;20303;-73
2021/12/17 13:51:30;;;;;;;8.48;5.80;;;10.40;99.90;;;;;;5031154;28;20307;-73
2021/12/17 13:53:58;;;;;;;7.10;6.13;;;10.40;99.90;;;;;;5032007;28;20634;-72
2021/12/17 13:56:24;;;;;;;8.43;5.85;;;10.50;99.90;;;;;;5031826;28;20215;-72
2021/12/17 13:58:51;;;;;;;6.18;5.22;;;10.50;99.90;;;;;;5032237;28;20197;-73
2021/12/17 14:01:22;;;;;;;7.55;6.00;;;10.50;99.90;;;;;;5030977;28;20765;-73
2021/12/17 14:03:49;;;;;;;6.90;3.95;;;10.50;99.90;;;;;;5028372;28;20290;-73
2021/12/17 14:06:22;;;;;;;4.85;3.45;;;10.50;99.90;;;;;;5028908;28;20711;-73
2021/12/17 14:08:51;;;;;;;3.67;2.80;;;10.30;99.90;;;;;;5031742;28;20673;-72
2021/12/17 14:11:19;;;;;;;2.90;2.25;;;10.30;99.90;;;;;;5031175;28;20714;-73
2021/12/17 14:13:48;;;;;;;3.75;2.90;;;10.30;99.90;;;;;;5031797;28;20204;-73
2021/12/17 14:16:28;;;;;;;4.97;4.25;;;10.40;99.90;;;;;;5031774;28;20630;-73
2021/12/17 14:18:58;;;;;;;3.88;3.33;;;10.40;99.90;;;;;;5031676;28;20283;-73
2021/12/17 14:21:28;;;;;;;7.07;4.75;;;10.40;99.90;;;;;;5031517;28;20261;-74
2021/12/17 14:23:57;;;;;;;6.13;4.30;;;10.50;99.90;;;;;;5031828;28;20223;-73
2021/12/17 14:26:29;;;;;;;5.80;4.40;;;10.50;99.90;;;;;;5031898;28;20247;-73
2021/12/17 14:28:56;;;;;;;8.13;3.05;;;10.50;99.90;;;;;;5031651;28;20216;-73
2021/12/17 14:31:25;;;;;;;4.20;3.03;;;10.50;99.90;;;;;;5030661;28;20300;-73
2021/12/17 14:33:54;;;;;;;4.65;3.67;;;10.50;99.90;;;;;;5032102;28;20208;-75
2021/12/17 14:36:26;;;;;;;6.63;3.75;;;10.50;99.90;;;;;;5031260;28;20198;-74
2021/12/17 14:39:04;;;;;;;4.53;4.13;;;10.50;99.90;;;;;;5031852;28;20494;-72
2021/12/17 14:41:37;;;;;;;7.38;3.80;;;10.50;99.90;;;;;;5031436;28;20231;-72
2021/12/17 14:44:20;;;;;;;5.43;4.70;;;10.50;99.90;;;;;;5030063;28;20303;-73
2021/12/17 14:46:51;;;;;;;9.45;5.82;;;10.50;99.90;;;;;;5020602;28;20209;-75
2021/12/17 14:57:14;;;;;;;8.10;6.57;;;10.50;99.90;;;;;;5031569;28;20215;-72
2021/12/17 15:00:51;;;;;;;10.52;8.00;;;10.30;99.90;;;;;;5034248;28;20379;-74
2021/12/17 15:03:26;;;;;;;12.48;9.07;;;10.30;99.90;;;;;;5031727;28;20274;-73
2021/12/17 15:05:54;;;;;;;11.00;8.23;;;10.30;99.90;;;;;;5033479;28;20571;-73
2021/12/17 15:08:21;;;;;;;14.73;10.13;;;10.30;99.90;;;;;;5031736;28;20244;-73
2021/12/17 15:10:50;;;;;;;12.00;10.75;;;10.30;99.90;;;;;;5033298;28;20231;-73
2021/12/17 15:13:17;;;;;;;16.20;10.05;;;10.30;99.90;;;;;;5028282;28;20254;-73
2021/12/17 15:15:45;;;;;;;15.35;10.43;;;10.30;99.90;;;;;;5027320;28;20286;-73
2021/12/17 15:18:15;;;;;;;18.50;10.63;;;10.30;99.90;;;;;;5034463;28;20284;-74
2021/12/17 15:20:44;;;;;;;17.50;10.38;;;10.40;99.90;;;;;;5025195;28;20221;-74
2021/12/17 15:23:11;;;;;;;15.93;9.95;;;10.30;99.90;;;;;;5033645;28;20196;-73
2021/12/17 15:25:40;;;;;;;16.55;10.38;;;10.30;99.90;;;;;;5034599;28;20236;-73
2021/12/17 15:28:10;;;;;;;18.65;10.68;;;10.30;99.90;;;;;;5035264;28;20259;-73